Last 7 Days

Gordon Valley 3 (GV3)

Hourly Data | America/Los_Angeles
as of 4/23/19 5:33 PM PDT
Date & Time Temp (°F) RH (%) Dew Pt (°F) Wind Spd (mph) Wind Dir (°) Wind Gust (mph) Wind Gst Dir (°) Latest Rain (In) Solar Rad Tot Hr (Cal/cm2) Daily Rain (In) Daily Min Temp (°F) Daily Max Temp (°F)
4/23/19 - 1700 88.0 43 62.6 4.9 SSW | 200 8.4 SSW | 210 0.00 51 0.00 50.0 89.2
4/23/19 - 1600 87.9 42 61.8 4.7 SSW | 211 11.8 WSW | 250 0.00 64 0.00 50.0 88.8
4/23/19 - 1500 87.3 40 59.7 3.4 SSE | 149 7.8 S | 187 0.00 73 0.00 50.0 88.4
4/23/19 - 1400 85.9 41 59.6 3.0 SSE | 164 9.5 SSE | 154 0.00 78 0.00 50.0 86.9
4/23/19 - 1300 84.3 44 59.6 2.5 S | 180 6.3 S | 175 0.00 78 0.00 50.0 85.5
4/23/19 - 1200 81.3 49 60.6 3.6 S | 182 6.9 SSE | 154 0.00 72 0.00 50.0 83.2
4/23/19 - 1100 77.9 51 58.6 3.7 S | 183 7.3 SW | 225 0.00 61 0.00 50.0 79.2
4/23/19 - 1000 73.5 56 56.7 3.2 S | 187 5.9 SSE | 164 0.00 44 0.00 50.0 76.6
4/23/19 - 0900 68.5 64 55.6 1.1 ESE | 109 4.9 SSW | 212 0.00 21 0.00 50.0 75.8
4/23/19 - 0800 59.2 98 58.7 0.5 ENE | 71 3.4 E | 83 0.00 14 0.00 50.0 75.8
4/23/19 - 0700 51.2 100 51.2 0.6 NE | 48 5.3 NNW | 333 0.00 2 0.00 50.0 75.8
4/23/19 - 0600 54.0 95 52.7 1.3 N | 6 5.4 NE | 55 0.00 0 0.00 52.1 75.8
4/23/19 - 0500 57.6 77 50.4 2.2 WSW | 246 5.8 WSW | 240 0.00 0 0.00 54.4 75.8
4/23/19 - 0400 71.8 40 45.8 4.1 NNE | 15 13.2 NNW | 335 0.00 0 0.00 61.8 75.8
4/23/19 - 0300 74.7 33 44.0 6.7 NNW | 347 12.1 N | 354 0.00 0 0.00 68.5 75.8
4/23/19 - 0200 72.2 38 44.8 5.2 N | 5 11.8 NNW | 338 0.00 0 0.00 68.5 75.6
4/23/19 - 0100 71.4 37 44.0 6.0 NNE | 14 12.1 N | 0 0.00 0 0.00 48.9 85.4
4/23/19 - 0000 69.6 39 43.2 5.1 NNE | 21 8.3 NE | 37 0.00 0 0.00 48.9 85.4
4/22/19 - 2300 63.5 49 43.9 3.7 NNE | 31 7.8 N | 10 0.00 0 0.00 48.9 85.4
4/22/19 - 2200 62.3 52 44.4 2.9 NE | 51 6.9 N | 350 0.00 0 0.00 48.9 85.4
4/22/19 - 2100 62.2 58 47.1 0.9 ENE | 71 3.9 E | 80 0.00 0 0.00 48.9 85.4
4/22/19 - 2000 75.2 30 41.0 2.3 NE | 45 13.3 NNW | 329 0.00 2 0.00 48.9 85.4
4/22/19 - 1900 82.1 24 42.0 3.7 NNW | 338 8.0 NNW | 347 0.00 15 0.00 48.9 85.4
4/22/19 - 1800 84.2 24 43.6 5.1 NNW | 343 10.5 N | 354 0.00 37 0.00 48.9 85.4
4/22/19 - 1700 84.6 22 41.8 7.0 NNW | 337 12.3 NNW | 340 0.00 53 0.00 48.9 85.4
4/22/19 - 1600 84.6 24 44.1 7.0 NNW | 337 13.2 N | 11 0.00 67 0.00 48.9 85.4
4/22/19 - 1500 83.7 25 44.5 6.9 NNW | 333 14.3 NW | 306 0.00 76 0.00 48.9 84.7
4/22/19 - 1400 82.2 28 45.5 7.9 NNW | 338 15.2 NNW | 328 0.00 81 0.00 48.9 83.3
4/22/19 - 1300 80.2 31 47.0 7.4 NNW | 332 15.2 N | 349 0.00 80 0.00 48.9 81.3
4/22/19 - 1200 78.4 32 46.3 7.4 NNW | 330 14.5 NW | 321 0.00 73 0.00 48.9 79.9
4/22/19 - 1100 76.2 34 46.2 6.9 NNW | 344 13.2 N | 354 0.00 63 0.00 48.9 77.6
4/22/19 - 1000 73.9 35 44.5 7.0 N | 356 13.2 - 0.00 48 0.00 48.9 75.3
4/22/19 - 0900 70.6 38 43.6 6.3 N | 354 13.2 N | 7 0.00 20 0.00 48.9 72.9
4/22/19 - 0800 66.5 43 43.5 6.1 N | 354 13.0 N | 353 0.00 13 0.00 48.9 68.4
4/22/19 - 0700 62.7 47 42.3 6.4 NNE | 15 11.3 N | 354 0.00 2 0.00 48.9 65.4
4/22/19 - 0600 56.4 65 44.0 4.1 NNE | 28 8.0 N | 1 0.00 0 0.00 48.9 65.0
4/22/19 - 0500 55.9 64 43.5 2.3 E | 95 7.1 - 0.00 0 0.00 50.0 65.0
4/22/19 - 0400 60.1 55 44.0 3.3 NNE | 27 7.4 NNE | 24 0.00 0 0.00 58.7 65.0
4/22/19 - 0300 61.7 55 45.2 4.1 NNE | 22 8.4 N | 2 0.00 0 0.00 59.4 65.0
4/22/19 - 0200 63.2 54 46.2 6.2 NNE | 15 13.3 N | 350 0.00 0 0.00 62.0 65.0
4/22/19 - 0100 57.4 92 54.7 4.2 N | 4 11.1 N | 6 0.00 0 0.00 40.7 75.8
4/22/19 - 0000 50.1 100 50.1 0.7 E | 83 3.8 E | 84 0.00 0 0.00 40.7 75.8
4/21/19 - 2300 50.8 100 50.8 0.5 NNE | 30 2.9 E | 96 0.00 0 0.00 40.7 75.8
4/21/19 - 2200 53.4 100 53.4 0.4 SW | 233 3.3 SW | 231 0.00 0 0.00 40.7 75.8
4/21/19 - 2100 57.2 85 52.7 0.4 NNE | 16 2.6 NE | 48 0.00 0 0.00 40.7 75.8
4/21/19 - 2000 64.4 62 51.0 1.1 S | 174 3.8 S | 186 0.00 2 0.00 40.7 75.8
4/21/19 - 1900 70.0 51 51.0 5.0 SW | 232 10.6 SW | 228 0.00 16 0.00 40.7 75.8
4/21/19 - 1800 72.0 49 51.8 7.8 WSW | 237 14.5 WSW | 244 0.00 35 0.00 40.7 75.8
4/21/19 - 1700 73.9 48 53.3 7.2 WSW | 239 14.6 SW | 224 0.00 52 0.00 40.7 75.8
4/21/19 - 1600 73.4 51 54.4 9.0 WSW | 238 18.2 WSW | 243 0.00 65 0.00 40.7 75.8
4/21/19 - 1500 74.6 47 52.8 3.4 SW | 230 10.0 SSW | 194 0.00 75 0.00 40.7 75.8
4/21/19 - 1400 72.2 53 54.2 6.8 SSW | 192 12.1 S | 182 0.00 80 0.00 40.7 73.4
4/21/19 - 1300 70.0 53 52.3 4.7 S | 177 9.8 SSW | 200 0.00 78 0.00 40.7 71.4
4/21/19 - 1200 68.0 56 51.6 4.6 S | 172 8.6 SSE | 161 0.00 72 0.00 40.7 69.1
4/21/19 - 1100 65.3 58 50.1 4.0 S | 171 7.4 SSW | 200 0.00 61 0.00 40.7 67.2
4/21/19 - 1000 61.8 79 54.7 2.6 S | 172 6.6 SSE | 167 0.00 46 0.00 40.7 63.8
4/21/19 - 0900 57.2 100 57.3 1.0 S | 173 3.9 SSE | 165 0.00 19 0.00 40.7 59.8
4/21/19 - 0800 49.1 100 49.2 0.3 ENE | 66 3.1 NNE | 15 0.00 12 0.00 40.7 54.6
4/21/19 - 0700 41.7 100 41.7 0.3 ESE | 112 2.6 E | 79 0.00 1 0.00 40.7 54.4
4/21/19 - 0600 41.9 100 41.9 0.4 NNE | 24 2.1 NNE | 33 0.00 0 0.00 40.7 54.4
4/21/19 - 0500 42.9 100 42.9 0.2 SSE | 165 2.1 S | 191 0.00 0 0.00 41.7 54.4
4/21/19 - 0400 44.4 100 44.4 0.7 NNE | 30 3.3 NE | 41 0.00 0 0.00 43.5 54.4
4/21/19 - 0300 47.0 100 47.0 1.2 SW | 223 3.3 SSE | 161 0.00 0 0.00 45.0 54.4
4/21/19 - 0200 51.4 90 48.4 2.3 N | 359 5.4 N | 0 0.00 0 0.00 48.3 54.4
4/21/19 - 0100 53.4 95 51.9 3.3 N | 2 7.4 NNE | 16 0.00 0 0.00 48.6 68.0
4/21/19 - 0000 49.5 100 49.5 2.2 NE | 51 5.3 ESE | 103 0.00 0 0.00 48.6 68.0
4/20/19 - 2300 52.9 78 46.3 1.3 NE | 56 5.4 NE | 44 0.00 0 0.00 49.6 68.0
4/20/19 - 2200 54.1 81 48.3 1.8 NE | 41 5.8 NE | 40 0.00 0 0.00 49.7 68.0
4/20/19 - 2100 54.5 78 47.9 1.7 SSE | 160 4.9 S | 169 0.00 0 0.00 49.7 68.0
4/20/19 - 2000 59.8 63 47.0 1.5 S | 174 8.1 SE | 132 0.00 1 0.00 49.7 68.0
4/20/19 - 1900 63.1 57 47.8 4.3 SSW | 201 12.0 SSW | 199 0.00 16 0.00 49.7 68.0
4/20/19 - 1800 63.9 59 49.2 10.2 SW | 217 18.3 S | 185 0.00 35 0.00 49.7 68.0
4/20/19 - 1700 64.2 58 49.3 13.7 SW | 235 22.2 WSW | 256 0.00 52 0.00 49.7 68.0
4/20/19 - 1600 66.0 58 50.9 12.3 SW | 223 21.2 SW | 230 0.00 66 0.00 49.7 68.0
4/20/19 - 1500 66.8 58 51.8 10.1 SW | 228 18.5 SW | 216 0.00 75 0.00 49.7 68.0
4/20/19 - 1400 65.6 60 51.6 8.0 SW | 235 17.8 SW | 218 0.00 51 0.00 49.7 67.2
4/20/19 - 1300 65.6 60 51.4 7.5 SW | 235 14.2 SW | 221 0.00 58 0.00 49.7 66.7
4/20/19 - 1200 65.7 61 51.7 8.2 WSW | 243 16.3 SW | 228 0.00 75 0.00 49.7 66.6
4/20/19 - 1100 62.6 86 58.0 5.1 W | 264 14.6 SW | 234 0.00 62 0.00 49.7 65.0
4/20/19 - 1000 57.8 100 57.8 3.8 WNW | 284 9.3 NNW | 327 0.00 37 0.00 49.7 60.7
4/20/19 - 0900 53.6 100 53.7 4.2 SW | 232 9.6 WSW | 244 0.00 10 0.00 49.7 55.3
4/20/19 - 0800 52.8 100 52.8 2.1 SSW | 207 6.1 SSW | 195 0.00 4 0.00 49.7 54.1
4/20/19 - 0700 52.0 100 52.0 3.1 SW | 232 10.8 SW | 221 0.00 0 0.00 49.7 54.1
4/20/19 - 0600 51.6 100 51.6 4.9 SW | 230 11.6 WSW | 249 0.00 0 0.00 49.7 54.1
4/20/19 - 0500 52.0 100 52.0 2.5 ESE | 122 7.4 ESE | 114 0.00 0 0.00 49.7 54.1
4/20/19 - 0400 51.0 100 51.1 1.5 E | 98 6.1 WSW | 243 0.00 0 0.00 49.7 54.1
4/20/19 - 0300 50.8 100 50.8 2.0 SW | 221 7.6 SSW | 210 0.00 0 0.00 49.7 54.1
4/20/19 - 0200 53.2 100 53.2 2.8 SW | 231 8.1 SW | 228 0.00 0 0.00 52.4 54.1
4/20/19 - 0100 54.3 100 54.3 5.0 SW | 226 10.6 SW | 216 0.00 0 0.00 39.8 82.6
4/20/19 - 0000 54.4 100 54.3 2.9 SSW | 213 10.8 SW | 224 0.00 0 0.00 39.8 82.6
4/19/19 - 2300 56.1 81 50.3 3.8 SW | 219 8.3 SW | 218 0.00 0 0.00 39.8 82.6
4/19/19 - 2200 58.3 70 48.6 3.4 SSW | 199 9.1 S | 188 0.00 0 0.00 39.8 82.6
4/19/19 - 2100 62.8 57 47.4 6.8 WSW | 240 13.0 SW | 230 0.00 0 0.00 39.8 82.6
4/19/19 - 2000 65.1 59 50.2 6.3 SW | 235 10.8 WSW | 248 0.00 2 0.00 39.8 82.6
4/19/19 - 1900 70.1 50 50.5 4.7 WSW | 237 11.3 WSW | 241 0.00 8 0.00 39.8 82.6
4/19/19 - 1800 74.3 47 52.7 4.6 WSW | 250 12.1 SW | 235 0.00 24 0.00 39.8 82.6
4/19/19 - 1700 78.6 46 55.8 6.3 WSW | 238 13.8 SW | 228 0.00 53 0.00 39.8 82.6
4/19/19 - 1600 80.5 40 54.1 7.2 WSW | 238 12.0 W | 264 0.00 67 0.00 39.8 82.6
4/19/19 - 1500 80.7 44 56.6 6.7 SSW | 210 11.5 SSW | 209 0.00 71 0.00 39.8 82.6
4/19/19 - 1400 79.1 51 59.2 3.5 SSE | 148 8.3 S | 170 0.00 79 0.00 39.8 82.6
4/19/19 - 1300 77.6 50 57.3 2.9 S | 171 7.6 S | 177 0.00 79 0.00 39.8 82.6
4/19/19 - 1200 74.6 52 56.1 2.8 S | 169 5.3 SSE | 159 0.00 61 0.00 39.8 82.6
4/19/19 - 1100 73.1 54 55.3 2.3 S | 175 6.1 SSE | 159 0.00 56 0.00 39.8 82.6
4/19/19 - 1000 69.7 84 64.2 0.8 SSW | 196 4.3 S | 182 0.00 50 0.00 39.8 82.6
4/19/19 - 0900 62.5 100 62.6 0.0 W | 279 1.6 WNW | 302 0.00 22 0.00 39.8 82.6
4/19/19 - 0800 54.5 100 54.5 1.0 E | 82 3.3 ENE | 74 0.00 10 0.00 39.8 74.9
4/19/19 - 0700 48.4 84 43.7 1.3 NE | 44 3.9 ENE | 78 0.00 1 0.00 39.8 54.0
4/19/19 - 0600 49.3 93 47.4 1.2 NE | 55 3.4 NE | 47 0.00 0 0.00 46.7 53.2
4/19/19 - 0500 48.0 100 48.0 0.6 NNE | 28 2.1 NNE | 25 0.00 0 0.00 46.7 53.2
4/19/19 - 0400 49.4 100 49.4 0.2 NE | 50 2.6 ENE | 71 0.00 0 0.00 48.4 53.2
4/19/19 - 0300 50.8 100 50.8 0.6 NE | 45 2.6 ENE | 73 0.00 0 0.00 49.6 53.2
4/19/19 - 0200 51.8 100 51.9 0.6 NE | 43 2.6 E | 79 0.00 0 0.00 50.4 53.2
4/19/19 - 0100 55.0 100 55.0 0.4 NW | 312 3.8 SSW | 213 0.00 0 0.00 44.4 81.3
4/19/19 - 0000 55.4 100 55.4 0.8 NE | 40 3.1 ENE | 69 0.00 0 0.00 44.4 81.3
4/18/19 - 2300 57.8 100 57.9 0.6 NNE | 29 3.8 NE | 37 0.00 0 0.00 44.4 81.3
4/18/19 - 2200 60.5 100 60.5 2.2 NNE | 32 4.3 NE | 44 0.00 0 0.00 44.4 81.3
4/18/19 - 2100 63.0 86 58.8 1.8 NE | 43 3.9 NE | 36 0.00 0 0.00 44.4 81.3
4/18/19 - 2000 69.8 66 57.7 0.7 NNE | 22 2.4 S | 186 0.00 2 0.00 44.4 81.3
4/18/19 - 1900 76.6 49 55.9 2.5 SSW | 193 4.9 SSW | 196 0.00 13 0.00 44.4 81.3
4/18/19 - 1800 78.9 48 57.7 5.1 S | 178 9.5 SE | 143 0.00 31 0.00 44.4 81.3
4/18/19 - 1700 80.5 44 56.2 4.1 SE | 132 8.4 SSE | 163 0.00 49 0.00 44.4 81.3
4/18/19 - 1600 80.2 43 55.8 4.4 E | 91 10.0 ENE | 76 0.00 64 0.00 44.4 81.1
4/18/19 - 1500 79.0 47 57.1 5.2 E | 97 9.0 E | 95 0.00 73 0.00 44.4 80.0
4/18/19 - 1400 76.8 49 56.0 6.3 ESE | 111 12.1 E | 98 0.00 77 0.00 44.4 78.5
4/18/19 - 1300 74.9 50 55.2 6.5 ESE | 108 11.8 ESE | 110 0.00 76 0.00 44.4 76.2
4/18/19 - 1200 73.6 53 55.5 4.7 SE | 129 12.8 ESE | 112 0.00 70 0.00 44.4 74.6
4/18/19 - 1100 70.1 56 53.8 3.0 SSW | 204 6.6 S | 175 0.00 60 0.00 44.4 72.9
4/18/19 - 1000 66.5 77 58.6 1.5 SSW | 193 5.4 SW | 217 0.00 45 0.00 44.4 68.5
4/18/19 - 0900 59.7 90 56.6 0.9 E | 80 3.3 E | 79 0.00 17 0.00 44.4 63.8
4/18/19 - 0800 50.5 100 50.5 1.2 NE | 51 3.6 ENE | 60 0.00 11 0.00 44.4 55.4
4/18/19 - 0700 45.6 100 45.6 0.4 ENE | 71 2.9 E | 101 0.00 1 0.00 44.4 55.4
4/18/19 - 0600 46.0 100 46.0 0.6 NE | 39 2.6 ESE | 102 0.00 0 0.00 45.2 55.4
4/18/19 - 0500 49.1 100 49.1 0.5 ESE | 102 3.4 SSE | 151 0.00 0 0.00 46.7 55.4
4/18/19 - 0400 52.5 100 52.5 1.7 NNE | 28 4.4 N | 4 0.00 0 0.00 50.7 55.4
4/18/19 - 0300 53.0 100 53.1 1.8 NNE | 22 4.4 NNE | 22 0.00 0 0.00 50.7 55.4
4/18/19 - 0200 53.2 100 53.2 1.4 NE | 35 4.4 NNE | 16 0.00 0 0.00 51.6 55.1
4/18/19 - 0100 52.9 100 52.9 0.6 N | 359 4.4 NNE | 27 0.00 0 0.00 39.5 74.5
4/18/19 - 0000 53.2 100 53.2 0.6 NNE | 18 4.1 NW | 314 0.00 0 0.00 39.5 74.5
4/17/19 - 2300 54.3 100 54.3 0.9 NNE | 29 4.4 NNE | 15 0.00 0 0.00 39.5 74.5
4/17/19 - 2200 55.4 100 55.4 1.1 NNE | 27 3.8 NNE | 21 0.00 0 0.00 39.5 74.5
4/17/19 - 2100 58.3 91 55.4 0.7 ENE | 68 4.4 SW | 227 0.00 0 0.00 39.5 74.5
4/17/19 - 2000 65.5 59 50.7 2.4 SW | 235 8.1 WSW | 249 0.00 1 0.00 39.5 74.5
4/17/19 - 1900 71.1 53 53.0 4.8 SW | 232 10.5 WSW | 247 0.00 15 0.00 39.5 74.5
4/17/19 - 1800 72.6 51 53.5 7.3 WSW | 240 12.8 SW | 225 0.00 34 0.00 39.5 74.5
4/17/19 - 1700 74.0 47 52.4 6.6 SW | 218 10.8 WSW | 241 0.00 50 0.00 39.5 74.5
4/17/19 - 1600 73.5 49 53.4 5.2 SW | 216 9.1 S | 188 0.00 63 0.00 39.5 74.2
4/17/19 - 1500 72.3 50 52.8 4.0 S | 181 9.6 SSW | 209 0.00 72 0.00 39.5 73.5
4/17/19 - 1400 70.7 51 51.6 3.7 SSE | 159 8.3 SE | 143 0.00 77 0.00 39.5 71.8
4/17/19 - 1300 69.0 52 50.6 3.9 S | 174 8.3 SSE | 156 0.00 76 0.00 39.5 70.3
4/17/19 - 1200 66.9 54 49.8 3.6 S | 169 7.8 S | 187 0.00 70 0.00 39.5 68.3
4/17/19 - 1100 64.0 68 53.0 3.7 SSE | 162 7.8 SSE | 155 0.00 59 0.00 39.5 66.2
4/17/19 - 1000 61.8 96 60.8 2.7 S | 184 5.4 SSE | 158 0.00 45 0.00 39.5 66.2
4/17/19 - 0900 56.5 84 51.3 0.5 W | 266 3.3 W | 262 0.00 16 0.00 39.5 66.2
4/17/19 - 0800 46.9 94 45.0 0.2 ENE | 62 1.7 E | 81 0.00 10 0.00 39.5 59.1
4/17/19 - 0700 40.3 100 40.3 0.4 NE | 34 2.9 NNE | 29 0.00 1 0.00 39.5 48.5
4/17/19 - 0600 41.3 100 41.3 0.1 NE | 56 1.9 NE | 46 0.00 0 0.00 40.5 48.5
4/17/19 - 0500 42.8 100 42.8 0.9 ENE | 66 3.6 NE | 52 0.00 0 0.00 41.6 48.5
4/17/19 - 0400 43.4 100 43.4 0.7 NNE | 27 2.4 N | 2 0.00 0 0.00 42.8 48.5
4/17/19 - 0300 45.2 100 45.2 0.5 ENE | 59 3.1 ESE | 109 0.00 0 0.00 43.5 48.5
4/17/19 - 0200 46.8 100 46.8 1.0 NNE | 13 3.3 NNW | 347 0.00 0 0.00 44.8 48.5
4/17/19 - 0100 48.7 100 48.7 2.4 NNE | 26 5.3 NNE | 21 0.00 0 0.03 29.3 82.5
4/17/19 - 0000 49.5 100 49.6 2.4 NNE | 29 4.6 N | 353 0.00 0 0.03 29.3 82.5
4/16/19 - 2300 51.3 100 51.4 2.8 NNE | 19 6.8 NNE | 16 0.00 0 0.03 29.3 82.5
4/16/19 - 2200 51.2 100 51.3 1.9 NNE | 12 4.9 N | 5 0.00 0 0.03 29.3 82.5
4/16/19 - 2100 53.2 86 49.1 0.7 NNE | 18 3.6 N | 6 0.00 0 0.03 29.3 82.5
4/16/19 - 2000 58.9 62 45.7 1.6 WNW | 299 5.3 WSW | 251 0.00 1 0.03 29.3 82.5
4/16/19 - 1900 63.8 57 48.4 5.7 SW | 220 10.0 S | 184 0.00 15 0.03 29.3 82.5
4/16/19 - 1800 66.5 53 49.1 5.8 SSW | 210 11.3 SW | 221 0.00 33 0.03 29.3 82.5
Max 88.0 100 64.2 13.7 - 22.2 - 0.00 81 0.03 68.5 89.2
Avg 62.9 71 51.0 3.4 - 7.9 - 0.00 25 - - -
Min 40.3 22 40.3 0.0 - 1.6 - 0.00 0 0.00 29.3 48.5
Total - - - - - - - 0.00 - - - -
Tip: Bookmark this page for easy future reference